Alger, Michigan
Current Conditions -  °F | °C
As of 9:53 PM on Saturday 20 Dec 2014 (Local Time) from KHTL Reporting Station
Overcast Overcast  
Wind Chill: 17°   Ceiling: 3100
Heat Index: 17°   Visibility: 10mi
Dew Point: 15°   Wind: 0mph
Humidity: 92%   Direction: NA
Pressure: 30.24"   Gusts: NA
Location:  44.13°N, 84.12°W
Report Text: KHTL 210253Z AUTO 00000KT 10SM OVC031 M08/M09 A3024 RMK AO2 SLP265 I1000 I3000 T10831094 55002
Loading
Personal Weather Stations






























Interactive Weather Map New forecast layout! Learn more

10-Day Weather Forecast

Advertisements
Track Severe Weather on mobile